Santa Fe, NM

16:25 MST le 17 janvier 2017 (GMT -0700)
Guadalupe District | | Change Station

Alt. 6942 ft 35.69 °N, 105.95 °W | Updated 3 seconds ago

Ciel dégagé
Ciel dégagé
42.1 ° F
Paraît 38 ° F
N
5.8
Vent Variable Vent de NO
Gusts 7.4 mph

Aujourd'hui
Haut(e) -- | Bas -- ° F
--% Risque de précip.
Hier
Haut(e) -- | Bas -- ° F
Precip. -- pouce
Pression 30.01 pouce
Visibilité 10.0 Miles terrestres
Nuages Peu 5500 ft
Refroidissement éolien 38 ° F
Point de rosée 29 ° F
Humidité 60%
Précipitations 0.27 pouce
Profondeur de la couche neigeuse Non disponible.
7:12 AM 5:16 PM
Lune gibbeuse décroissante, 69% visible
METAR KSAF 172253Z 35010KT 10SM FEW055 07/M02 A3008 RMK AO2 SLP162 T00671017
Pression 30.01 pouce
Visibilité 10.0 Miles terrestres
Nuages Peu 5500 ft
Refroidissement éolien 38 ° F
Point de rosée 29 ° F
Humidité 60%
Précipitations 0.27 pouce
Profondeur de la couche neigeuse Non disponible.
7:12 AM 5:16 PM
Lune gibbeuse décroissante, 69% visible
METAR KSAF 172253Z 35010KT 10SM FEW055 07/M02 A3008 RMK AO2 SLP162 T00671017

Get Your Daily Forecast Email!

Thanks for signing up!

Be on the lookout for a verification email in your inbox.

You'll start receiving the daily forecast at 8 AM.

×

10-Day Weather Forecast

Almanac

Astronomie

Jan. 17, 2017 Lever Coucher
Temps réel
Crépuscule civil
Crépuscule nautique
Crépuscule astronomique
Lune
Durée de lumière visible
Longueur du jour
Tomorrow will be .
, % of the Moon is Illuminated

Extrêmes aujourd'hui

State Highs State Lows

Community

WunderPhotos

Upload Photos

1,962,540 Photos téléchargées !

WunderBlog® & News

Nearby

Qualité de l'air

  Qualité de l'air Indice de la qualité de l'air Polluant
Not available.

Épaisseur de neige

Station Depth Altitude

Activité sismique

Ville Distance Mag. Time & Date
Minimum magnitude displayed is 2.5.

Températures des eaux côtières

Lieu Température

Stations

Stations météo à proximité

Emplacement de la station Température Refroidissement éolien Point de rosée Humidité Vent Precip. Alt. Mise à jour Type
                   

Watches & Warnings

There are currently no watches in effect.